createdAt,value
2018-07-05T00:00:31.006Z,20.60
2018-07-05T00:03:10.919Z,20.70
2018-07-05T00:05:50.638Z,20.70
2018-07-05T00:08:30.325Z,20.80
2018-07-05T00:11:10.459Z,20.70
2018-07-05T00:13:50.115Z,20.70
2018-07-05T00:16:29.762Z,20.70
2018-07-05T00:19:09.428Z,20.80
2018-07-05T00:21:52.324Z,20.80
2018-07-05T00:24:32.072Z,20.80
2018-07-05T00:27:11.783Z,20.90
2018-07-05T00:29:51.481Z,20.90
2018-07-05T00:32:31.228Z,20.90
2018-07-05T00:35:10.892Z,20.80
2018-07-05T00:37:50.656Z,20.90
2018-07-05T00:40:30.324Z,20.90
2018-07-05T00:43:10.105Z,20.80
2018-07-05T00:45:49.800Z,20.80
2018-07-05T00:48:29.381Z,20.80
2018-07-05T00:53:43.121Z,20.50
2018-07-05T00:56:22.677Z,20.50
2018-07-05T00:59:02.288Z,20.40
2018-07-05T01:01:42.022Z,20.30
2018-07-05T01:04:21.900Z,20.10
2018-07-05T01:07:01.924Z,20.00
2018-07-05T01:09:41.432Z,20.00
2018-07-05T01:12:21.236Z,20.00
2018-07-05T01:15:01.081Z,19.90
2018-07-05T01:17:40.923Z,19.90
2018-07-05T01:20:20.602Z,19.80
2018-07-05T01:23:00.518Z,19.80
2018-07-05T01:25:40.138Z,19.80
2018-07-05T01:28:19.922Z,19.80
2018-07-05T01:30:59.580Z,19.70
2018-07-05T01:33:39.183Z,19.70
2018-07-05T01:36:19.018Z,19.80
2018-07-05T01:38:58.696Z,19.90
2018-07-05T01:41:38.311Z,19.90
2018-07-05T01:44:17.972Z,19.90
2018-07-05T01:46:57.644Z,19.90
2018-07-05T01:49:37.435Z,19.90
2018-07-05T01:52:17.236Z,19.80
2018-07-05T01:54:57.028Z,19.50
2018-07-05T01:57:37.385Z,19.50
2018-07-05T02:00:17.256Z,19.40
2018-07-05T02:02:56.849Z,19.20
2018-07-05T02:05:36.685Z,19.20
2018-07-05T02:08:16.336Z,19.20
2018-07-05T02:10:56.168Z,19.30
2018-07-05T02:13:35.925Z,19.30
2018-07-05T02:16:15.452Z,19.30
2018-07-05T02:18:55.261Z,19.30
2018-07-05T02:21:34.790Z,19.40
2018-07-05T02:26:48.877Z,19.30
2018-07-05T02:29:28.681Z,19.20
2018-07-05T02:32:08.343Z,19.10
2018-07-05T02:34:48.163Z,19.10
2018-07-05T02:37:33.396Z,19.00
2018-07-05T02:40:13.247Z,19.00
2018-07-05T02:42:52.949Z,19.00
2018-07-05T02:45:32.567Z,19.00
2018-07-05T02:48:12.213Z,19.00
2018-07-05T02:50:51.895Z,19.00
2018-07-05T02:53:31.552Z,19.00
2018-07-05T02:56:11.423Z,19.00
2018-07-05T02:58:51.081Z,19.00
2018-07-05T03:01:30.539Z,19.10
2018-07-05T03:04:10.267Z,19.10
2018-07-05T03:06:50.073Z,19.20
2018-07-05T03:09:29.846Z,19.20
2018-07-05T03:12:09.595Z,19.00
2018-07-05T03:14:49.613Z,18.90
2018-07-05T03:17:29.332Z,18.90
2018-07-05T03:20:08.970Z,18.80
2018-07-05T03:22:48.736Z,18.70
2018-07-05T03:25:32.873Z,18.70
2018-07-05T03:28:12.555Z,18.70
2018-07-05T03:30:52.308Z,18.70
2018-07-05T03:33:31.908Z,18.70
2018-07-05T03:36:11.557Z,18.80
2018-07-05T03:38:51.380Z,18.90
2018-07-05T03:41:31.122Z,18.90
2018-07-05T03:44:11.916Z,19.00
2018-07-05T03:46:51.756Z,19.00
2018-07-05T03:49:31.449Z,19.00
2018-07-05T03:52:11.349Z,19.00
2018-07-05T03:54:51.089Z,19.00
2018-07-05T03:57:30.785Z,19.00
2018-07-05T04:00:10.744Z,19.00
2018-07-05T04:02:50.328Z,19.00
2018-07-05T04:05:29.911Z,19.00
2018-07-05T04:08:09.550Z,19.10
2018-07-05T04:10:49.421Z,19.00
2018-07-05T04:13:29.802Z,19.20
2018-07-05T04:16:09.373Z,19.30
2018-07-05T04:18:49.111Z,19.40
2018-07-05T04:21:28.890Z,19.40
2018-07-05T04:24:08.635Z,19.50
2018-07-05T04:26:52.080Z,19.50
2018-07-05T04:29:31.768Z,19.60
2018-07-05T04:32:11.360Z,19.70
2018-07-05T04:34:51.160Z,19.80
2018-07-05T04:37:31.056Z,19.70
2018-07-05T04:40:10.815Z,19.60
2018-07-05T04:42:50.338Z,19.50
2018-07-05T04:45:30.244Z,19.40
2018-07-05T04:48:10.061Z,19.50
2018-07-05T04:50:49.828Z,19.50
2018-07-05T04:53:29.807Z,19.50
2018-07-05T04:56:11.184Z,19.40
2018-07-05T04:58:50.818Z,19.40
2018-07-05T05:01:30.627Z,19.50
2018-07-05T05:04:11.164Z,19.60
2018-07-05T05:06:50.967Z,19.70
2018-07-05T05:09:30.626Z,19.80
2018-07-05T05:12:10.340Z,19.80
2018-07-05T05:14:50.202Z,19.80
2018-07-05T05:17:29.980Z,19.80
2018-07-05T05:20:09.486Z,19.80
2018-07-05T05:22:49.168Z,19.80
2018-07-05T05:25:28.804Z,19.90
2018-07-05T05:28:08.548Z,20.10
2018-07-05T05:30:48.269Z,20.40
2018-07-05T05:33:28.006Z,20.70
2018-07-05T05:36:08.088Z,20.90
2018-07-05T05:38:47.732Z,21.10
2018-07-05T05:41:27.584Z,21.30
2018-07-05T05:44:07.488Z,21.60
2018-07-05T05:46:47.256Z,21.90
2018-07-05T05:49:26.984Z,22.30
2018-07-05T05:52:08.082Z,22.60
2018-07-05T05:54:47.745Z,22.90
2018-07-05T05:57:27.565Z,23.20
2018-07-05T06:00:07.226Z,23.50
2018-07-05T06:02:47.019Z,23.70
2018-07-05T06:05:26.793Z,23.90
2018-07-05T06:08:06.551Z,23.90
2018-07-05T06:10:46.233Z,24.00
2018-07-05T06:13:25.780Z,24.10
2018-07-05T06:16:05.527Z,24.40
2018-07-05T06:18:45.217Z,24.60
2018-07-05T06:21:24.749Z,24.80
2018-07-05T06:24:04.541Z,24.90
2018-07-05T06:26:44.371Z,24.90
2018-07-05T06:29:24.217Z,25.30
2018-07-05T06:32:04.179Z,25.60
2018-07-05T06:34:43.899Z,25.90
2018-07-05T06:37:23.549Z,26.30
2018-07-05T06:40:03.228Z,26.30
2018-07-05T06:42:42.812Z,26.40
2018-07-05T06:45:22.681Z,26.70
2018-07-05T06:48:02.616Z,26.70
2018-07-05T06:50:42.443Z,26.80
2018-07-05T06:53:22.694Z,26.70
2018-07-05T06:56:02.387Z,26.50
2018-07-05T06:58:41.966Z,26.40
2018-07-05T07:01:21.712Z,26.30
2018-07-05T07:04:01.471Z,26.30
2018-07-05T07:06:41.216Z,26.40
2018-07-05T07:09:20.887Z,26.50
2018-07-05T07:12:00.673Z,26.60
2018-07-05T07:14:40.396Z,26.80
2018-07-05T07:17:20.061Z,26.90
2018-07-05T07:19:59.836Z,27.20
2018-07-05T07:22:39.506Z,27.10
2018-07-05T07:25:19.244Z,27.20
2018-07-05T07:27:59.069Z,27.10
2018-07-05T07:30:38.809Z,27.20
2018-07-05T07:33:18.452Z,27.20
2018-07-05T07:35:58.109Z,27.30
2018-07-05T07:38:37.977Z,27.40
2018-07-05T07:41:17.682Z,27.50
2018-07-05T07:43:45.109Z,27.70
2018-07-05T07:46:12.410Z,27.90
2018-07-05T07:48:39.997Z,28.00
2018-07-05T07:51:07.333Z,28.10
2018-07-05T07:53:34.658Z,28.00
2018-07-05T07:56:01.965Z,27.90
2018-07-05T07:58:29.246Z,27.60
2018-07-05T08:01:02.134Z,27.50
2018-07-05T08:03:29.475Z,27.40
2018-07-05T08:05:56.781Z,26.80
2018-07-05T08:08:24.121Z,26.50
2018-07-05T08:10:51.449Z,26.40
2018-07-05T08:13:18.780Z,26.40
2018-07-05T08:15:46.103Z,26.50
2018-07-05T08:18:13.427Z,26.50
2018-07-05T08:20:40.777Z,26.50
2018-07-05T08:23:08.061Z,26.40
2018-07-05T08:25:35.393Z,26.10
2018-07-05T08:28:02.701Z,26.00
2018-07-05T08:30:30.014Z,25.90
2018-07-05T08:32:57.364Z,25.80
2018-07-05T08:35:24.696Z,25.80
2018-07-05T08:37:52.137Z,25.80
2018-07-05T08:40:19.531Z,25.60
2018-07-05T08:42:46.845Z,25.50
2018-07-05T08:45:14.287Z,25.40
2018-07-05T08:47:41.667Z,25.50
2018-07-05T08:50:09.067Z,25.60
2018-07-05T08:52:36.347Z,25.80
2018-07-05T08:55:03.707Z,25.70
2018-07-05T08:57:31.007Z,25.60
2018-07-05T08:59:58.873Z,25.60
2018-07-05T09:02:26.345Z,25.50
2018-07-05T09:04:56.377Z,25.40
2018-07-05T09:07:23.697Z,25.40
2018-07-05T09:09:51.015Z,25.40
2018-07-05T09:12:18.311Z,25.60
2018-07-05T09:14:45.603Z,25.80
2018-07-05T09:17:12.932Z,26.10
2018-07-05T09:19:40.325Z,26.30
2018-07-05T09:22:07.640Z,26.50
2018-07-05T09:24:34.953Z,26.50
2018-07-05T09:27:02.276Z,26.70
2018-07-05T09:29:29.587Z,26.80
2018-07-05T09:31:56.923Z,26.80
2018-07-05T09:34:24.205Z,26.70
2018-07-05T09:36:51.556Z,26.70
2018-07-05T09:39:18.881Z,26.80
2018-07-05T09:41:46.174Z,26.80
2018-07-05T09:44:13.496Z,26.80
2018-07-05T09:46:40.810Z,26.90
2018-07-05T09:49:08.126Z,27.00
2018-07-05T09:51:35.410Z,27.20
2018-07-05T09:54:02.769Z,27.30
2018-07-05T09:56:30.100Z,27.50
2018-07-05T09:58:57.463Z,27.40
2018-07-05T10:01:24.797Z,27.40
2018-07-05T10:03:52.158Z,27.50
2018-07-05T10:06:19.450Z,27.50
2018-07-05T10:08:46.756Z,27.60
2018-07-05T10:11:14.072Z,27.60
2018-07-05T10:13:41.634Z,27.50
2018-07-05T10:16:08.687Z,27.60
2018-07-05T10:18:35.984Z,27.50
2018-07-05T10:21:03.289Z,27.60
2018-07-05T10:23:30.632Z,27.60
2018-07-05T10:25:57.936Z,27.60
2018-07-05T10:28:25.256Z,27.70
2018-07-05T10:31:04.906Z,27.70
2018-07-05T10:33:45.188Z,27.60
2018-07-05T10:38:40.165Z,27.20
2018-07-05T10:41:20.044Z,27.20
2018-07-05T10:44:00.039Z,27.20
2018-07-05T10:46:39.668Z,27.20
2018-07-05T10:49:19.505Z,27.10
2018-07-05T10:51:59.114Z,27.20
2018-07-05T10:54:38.829Z,27.40
2018-07-05T10:57:18.645Z,27.40
2018-07-05T10:59:58.364Z,27.50
2018-07-05T11:02:38.093Z,27.50
2018-07-05T11:05:17.940Z,27.50
2018-07-05T11:07:57.638Z,27.60
2018-07-05T11:10:37.475Z,27.70
2018-07-05T11:13:18.229Z,27.80
2018-07-05T11:15:58.155Z,27.60
2018-07-05T11:18:37.904Z,27.80
2018-07-05T11:21:17.537Z,28.10
2018-07-05T11:23:57.293Z,28.20
2018-07-05T11:26:36.946Z,28.40
2018-07-05T11:29:16.651Z,28.20
2018-07-05T11:31:56.251Z,28.20
2018-07-05T11:34:36.083Z,28.00
2018-07-05T11:37:15.682Z,28.00
2018-07-05T11:39:55.448Z,27.80
2018-07-05T11:42:35.357Z,28.10
2018-07-05T11:45:15.115Z,28.40
2018-07-05T11:47:55.095Z,28.70
2018-07-05T11:50:34.848Z,29.00
2018-07-05T11:53:14.698Z,29.30
2018-07-05T11:55:54.268Z,29.50
2018-07-05T11:58:34.191Z,29.40
2018-07-05T12:01:15.222Z,29.10
2018-07-05T12:03:55.277Z,28.90
2018-07-05T12:06:35.091Z,28.70
2018-07-05T12:09:15.101Z,28.60
2018-07-05T12:11:54.878Z,28.60
2018-07-05T12:14:34.737Z,28.60
2018-07-05T12:17:14.503Z,28.70
2018-07-05T12:19:54.205Z,28.80
2018-07-05T12:22:34.038Z,28.90
2018-07-05T12:25:13.570Z,28.90
2018-07-05T12:27:53.420Z,28.70
2018-07-05T12:30:34.145Z,28.50
2018-07-05T12:33:13.989Z,28.10
2018-07-05T12:35:53.667Z,27.80
2018-07-05T12:38:33.354Z,27.60
2018-07-05T12:41:13.004Z,27.50
2018-07-05T12:43:52.719Z,27.60
2018-07-05T12:46:32.419Z,27.80
2018-07-05T12:49:12.079Z,28.00
2018-07-05T12:51:52.011Z,27.90
2018-07-05T12:54:31.816Z,27.70
2018-07-05T12:57:11.505Z,27.50
2018-07-05T12:59:51.283Z,27.20
2018-07-05T13:02:30.951Z,27.10
2018-07-05T13:05:10.495Z,26.90
2018-07-05T13:07:50.125Z,26.80
2018-07-05T13:10:30.784Z,26.80
2018-07-05T13:13:10.618Z,26.80
2018-07-05T13:15:50.385Z,26.70
2018-07-05T13:18:30.021Z,26.60
2018-07-05T13:21:09.519Z,26.60
2018-07-05T13:23:49.346Z,26.50
2018-07-05T13:26:29.139Z,26.60
2018-07-05T13:29:09.042Z,26.70
2018-07-05T13:31:48.712Z,26.60
2018-07-05T13:34:28.422Z,26.60
2018-07-05T13:37:07.968Z,26.70
2018-07-05T13:39:47.827Z,26.80
2018-07-05T13:42:27.471Z,26.80
2018-07-05T13:45:07.144Z,27.00
2018-07-05T13:47:46.939Z,27.10
2018-07-05T13:50:26.684Z,27.20
2018-07-05T13:53:06.468Z,27.10
2018-07-05T13:55:46.144Z,27.10
2018-07-05T13:58:26.053Z,27.10
2018-07-05T14:01:05.684Z,27.20
2018-07-05T14:03:45.451Z,27.20
2018-07-05T14:06:25.376Z,27.00
2018-07-05T14:09:05.056Z,26.80
2018-07-05T14:11:44.744Z,26.80
2018-07-05T14:14:24.475Z,26.80
2018-07-05T14:17:04.432Z,26.80
2018-07-05T14:19:44.128Z,27.00
2018-07-05T14:22:23.656Z,26.90
2018-07-05T14:25:03.449Z,26.90
2018-07-05T14:27:43.368Z,27.00
2018-07-05T14:30:23.136Z,27.10
2018-07-05T14:33:02.726Z,27.30
2018-07-05T14:35:42.546Z,27.40
2018-07-05T14:38:22.182Z,27.60
2018-07-05T14:41:01.890Z,27.70
2018-07-05T14:43:43.340Z,27.60
2018-07-05T14:46:23.032Z,27.70
2018-07-05T14:49:02.676Z,27.70
2018-07-05T14:51:42.860Z,27.60
2018-07-05T14:54:22.509Z,27.60
2018-07-05T14:57:02.134Z,27.60
2018-07-05T14:59:41.924Z,27.30
2018-07-05T15:02:22.580Z,27.20
2018-07-05T15:05:02.283Z,27.20
2018-07-05T15:07:42.042Z,27.40
2018-07-05T15:10:21.759Z,27.30
2018-07-05T15:13:01.503Z,27.30
2018-07-05T15:15:41.219Z,27.30
2018-07-05T15:18:20.849Z,27.30
2018-07-05T15:21:02.096Z,27.30
2018-07-05T15:23:41.713Z,27.20
2018-07-05T15:26:22.321Z,27.00
2018-07-05T15:29:02.019Z,27.00
2018-07-05T15:31:41.847Z,26.80
2018-07-05T15:34:21.574Z,26.80
2018-07-05T15:37:01.347Z,26.80
2018-07-05T15:39:41.191Z,26.80
2018-07-05T15:42:20.743Z,26.70
2018-07-05T15:45:00.589Z,26.70
2018-07-05T15:47:40.535Z,26.60
2018-07-05T15:50:20.449Z,26.60
2018-07-05T15:53:00.223Z,26.70
2018-07-05T15:55:40.167Z,26.70
2018-07-05T15:58:19.923Z,26.70
2018-07-05T16:00:59.590Z,26.70
2018-07-05T16:03:39.455Z,26.60
2018-07-05T16:06:19.025Z,26.60
2018-07-05T16:08:58.727Z,26.50
2018-07-05T16:11:38.431Z,26.50
2018-07-05T16:14:18.965Z,26.50
2018-07-05T16:16:58.649Z,26.50
2018-07-05T16:19:38.253Z,26.40
2018-07-05T16:22:18.083Z,26.50
2018-07-05T16:24:57.841Z,26.50
2018-07-05T16:27:37.736Z,26.50
2018-07-05T16:30:17.751Z,26.50
2018-07-05T16:32:57.940Z,26.50
2018-07-05T16:35:38.086Z,26.50
2018-07-05T16:38:18.052Z,26.60
2018-07-05T16:40:57.992Z,26.50
2018-07-05T16:43:38.486Z,26.60
2018-07-05T16:46:18.359Z,26.60
2018-07-05T16:48:58.227Z,26.70
2018-07-05T16:51:37.836Z,26.70
2018-07-05T16:54:17.684Z,26.70
2018-07-05T16:56:57.237Z,26.60
2018-07-05T16:59:36.927Z,26.60
2018-07-05T17:02:16.597Z,26.60
2018-07-05T17:04:56.539Z,26.50
2018-07-05T17:07:36.284Z,26.50
2018-07-05T17:10:16.114Z,26.50
2018-07-05T17:12:56.081Z,26.40
2018-07-05T17:15:35.810Z,26.40
2018-07-05T17:18:15.435Z,26.50
2018-07-05T17:20:55.198Z,26.40
2018-07-05T17:23:35.096Z,26.40
2018-07-05T17:26:14.808Z,26.40
2018-07-05T17:28:54.575Z,26.50
2018-07-05T17:31:34.192Z,26.50
2018-07-05T17:34:13.827Z,26.60
2018-07-05T17:36:53.866Z,26.50
2018-07-05T17:39:33.476Z,26.50
2018-07-05T17:42:13.266Z,26.40
2018-07-05T17:44:52.904Z,26.40
2018-07-05T17:47:32.678Z,26.40
2018-07-05T17:50:12.367Z,26.40
2018-07-05T17:52:52.136Z,26.40
2018-07-05T17:55:31.788Z,26.30
2018-07-05T17:58:11.412Z,26.30
2018-07-05T18:00:51.186Z,26.30
2018-07-05T18:03:30.952Z,26.30
2018-07-05T18:06:10.921Z,26.30
2018-07-05T18:08:50.939Z,26.20
2018-07-05T18:11:30.716Z,26.20
2018-07-05T18:14:10.556Z,26.30
2018-07-05T18:16:50.388Z,26.30
2018-07-05T18:19:30.199Z,26.20
2018-07-05T18:22:10.036Z,26.10
2018-07-05T18:24:49.832Z,26.10
2018-07-05T18:27:29.472Z,26.00
2018-07-05T18:30:09.290Z,26.00
2018-07-05T18:32:48.964Z,25.90
2018-07-05T18:35:29.977Z,25.90
2018-07-05T18:38:09.938Z,25.90
2018-07-05T18:40:49.802Z,25.90
2018-07-05T18:43:29.532Z,25.90
2018-07-05T18:46:09.427Z,25.90
2018-07-05T18:48:49.111Z,25.90
2018-07-05T18:51:28.777Z,25.90
2018-07-05T18:54:08.521Z,25.80
2018-07-05T18:56:48.297Z,25.90
2018-07-05T18:59:27.804Z,25.80
2018-07-05T19:02:07.490Z,25.80
2018-07-05T19:04:47.225Z,25.70
2018-07-05T19:07:26.828Z,25.70
2018-07-05T19:10:06.419Z,25.70
2018-07-05T19:12:46.225Z,25.60
2018-07-05T19:15:25.843Z,25.60
2018-07-05T19:18:05.469Z,25.60
2018-07-05T19:20:45.304Z,25.60
2018-07-05T19:23:24.926Z,25.50
2018-07-05T19:26:04.603Z,25.40
2018-07-05T19:28:44.221Z,25.40
2018-07-05T19:31:25.193Z,25.30
2018-07-05T19:34:04.786Z,25.30
2018-07-05T19:36:44.391Z,25.20
2018-07-05T19:39:24.120Z,25.20
2018-07-05T19:42:03.750Z,25.10
2018-07-05T19:44:43.685Z,25.10
2018-07-05T19:47:23.607Z,25.10
2018-07-05T19:50:03.375Z,25.10
2018-07-05T19:52:43.419Z,25.00
2018-07-05T19:55:23.187Z,25.00
2018-07-05T19:58:02.929Z,25.00
2018-07-05T20:00:42.770Z,24.90
2018-07-05T20:03:22.687Z,24.90
2018-07-05T20:06:02.353Z,24.90
2018-07-05T20:08:42.036Z,24.90
2018-07-05T20:11:21.895Z,24.90
2018-07-05T20:14:01.471Z,24.90
2018-07-05T20:16:41.211Z,24.90
2018-07-05T20:19:20.876Z,24.80
2018-07-05T20:22:00.609Z,24.80
2018-07-05T20:24:40.311Z,24.70
2018-07-05T20:27:20.198Z,24.70
2018-07-05T20:29:59.910Z,24.70
2018-07-05T20:32:39.532Z,24.60
2018-07-05T20:35:19.262Z,24.60
2018-07-05T20:37:58.951Z,24.60
2018-07-05T20:40:38.621Z,24.60
2018-07-05T20:43:18.809Z,24.50
2018-07-05T20:45:58.410Z,24.40
2018-07-05T20:48:38.131Z,24.40
2018-07-05T20:51:17.934Z,24.40
2018-07-05T20:53:57.705Z,24.40
2018-07-05T20:56:37.301Z,24.30
2018-07-05T20:59:16.977Z,24.20
2018-07-05T21:01:56.882Z,24.20
2018-07-05T21:04:36.841Z,24.20
2018-07-05T21:07:16.522Z,24.20
2018-07-05T21:09:56.323Z,24.00
2018-07-05T21:12:35.976Z,23.90
2018-07-05T21:15:15.697Z,23.90
2018-07-05T21:17:55.988Z,23.80
2018-07-05T21:20:35.924Z,23.70
2018-07-05T21:23:15.885Z,23.60
2018-07-05T21:25:55.935Z,23.60
2018-07-05T21:28:35.810Z,23.50
2018-07-05T21:31:15.396Z,23.40
2018-07-05T21:33:55.178Z,23.40
2018-07-05T21:36:34.952Z,23.30
2018-07-05T21:39:14.620Z,23.30
2018-07-05T21:41:54.445Z,23.20
2018-07-05T21:44:34.013Z,23.20
2018-07-05T21:47:13.997Z,23.20
2018-07-05T21:49:53.621Z,23.20
2018-07-05T21:52:33.429Z,23.10
2018-07-05T21:55:13.203Z,23.10
2018-07-05T21:57:52.759Z,23.10
2018-07-05T22:00:32.445Z,23.10
2018-07-05T22:03:12.105Z,23.10
2018-07-05T22:05:51.860Z,23.00
2018-07-05T22:08:31.659Z,22.90
2018-07-05T22:11:11.271Z,22.90
2018-07-05T22:13:51.127Z,23.00
2018-07-05T22:16:30.897Z,22.90
2018-07-05T22:19:16.093Z,22.90
2018-07-05T22:22:01.399Z,22.90
2018-07-05T22:24:46.753Z,22.80
2018-07-05T22:27:32.025Z,22.70
2018-07-05T22:30:17.143Z,22.70
2018-07-05T22:32:56.960Z,22.70
2018-07-05T22:35:36.573Z,22.60
2018-07-05T22:38:16.411Z,22.60
2018-07-05T22:40:56.111Z,22.50
2018-07-05T22:43:35.913Z,22.50
2018-07-05T22:46:15.547Z,22.50
2018-07-05T22:48:55.365Z,22.40
2018-07-05T22:51:35.213Z,22.50
2018-07-05T22:54:15.044Z,22.50
2018-07-05T22:56:54.638Z,22.40
2018-07-05T23:25:12.107Z,22.20
2018-07-05T23:27:51.773Z,22.10
2018-07-05T23:30:31.525Z,22.10
2018-07-05T23:36:02.010Z,22.20
2018-07-05T23:38:41.791Z,22.00
2018-07-05T23:41:21.515Z,22.00
2018-07-05T23:44:01.256Z,21.90
2018-07-05T23:46:41.050Z,21.90
2018-07-05T23:49:20.824Z,21.80
2018-07-05T23:52:00.512Z,21.80
2018-07-05T23:54:40.362Z,21.80
2018-07-05T23:57:19.977Z,21.80
2018-07-05T23:59:59.756Z,21.70
